Time;durP1;ratioP1;P1;durP2;ratioP2;P2;SDS_P1;SDS_P2;PMS_P1;PMS_P2;Temp;Humidity;BMP_temperature;BMP_pressure;BME280_temperature;BME280_humidity;BME280_pressure;Samples;Min_cycle;Max_cycle;Signal;HPM_P1;HPM_P2
2023/12/21 00:01:52;;;;;;;;;;;9.00;99.90;;;;;;4960744;28;19925;-69
2023/12/21 00:04:18;;;;;;;;;;;9.00;99.90;;;;;;4964904;28;20689;-69
2023/12/21 00:06:44;;;;;;;;;;;9.00;99.90;;;;;;4961958;28;19929;-69
2023/12/21 00:09:10;;;;;;;;;;;9.00;99.90;;;;;;4940918;28;19925;-69
2023/12/21 00:11:36;;;;;;;;;;;8.90;99.90;;;;;;4962124;28;19937;-69
2023/12/21 00:14:02;;;;;;;;;;;9.00;99.90;;;;;;4941153;28;19936;-70
2023/12/21 00:16:28;;;;;;;;;;;9.00;99.90;;;;;;4962773;28;20027;-69
2023/12/21 00:18:54;;;;;;;;;;;8.90;99.90;;;;;;4961144;28;20031;-69
2023/12/21 00:21:20;;;;;;;;;;;9.00;99.90;;;;;;4964160;28;19931;-69
2023/12/21 00:23:46;;;;;;;;;;;9.00;99.90;;;;;;4931666;28;19933;-69
2023/12/21 00:26:12;;;;;;;;;;;8.90;99.90;;;;;;4962000;28;20021;-69
2023/12/21 00:28:38;;;;;;;;;;;8.90;99.90;;;;;;4930944;28;19994;-69
2023/12/21 00:31:04;;;;;;;;;;;8.90;99.90;;;;;;4958477;28;19929;-68
2023/12/21 00:33:30;;;;;;;;;;;9.00;99.90;;;;;;4931185;28;19925;-69
2023/12/21 00:35:55;;;;;;;;;;;8.90;99.90;;;;;;4963777;28;20443;-68
2023/12/21 00:38:21;;;;;;;;;;;9.00;99.90;;;;;;4931188;28;19925;-69
2023/12/21 00:40:47;;;;;;;;;;;9.00;99.90;;;;;;4962213;28;20737;-69
2023/12/21 00:43:13;;;;;;;;;;;9.00;99.90;;;;;;4950614;28;19925;-69
2023/12/21 00:45:39;;;;;;;;;;;9.00;99.90;;;;;;4976522;28;19956;-69
2023/12/21 00:48:05;;;;;;;;;;;9.00;99.90;;;;;;4931464;28;19925;-69
2023/12/21 00:50:31;;;;;;;;;;;9.00;99.90;;;;;;4951321;28;19951;-69
2023/12/21 00:52:57;;;;;;;;;;;9.00;99.90;;;;;;4931328;28;20688;-69
2023/12/21 00:55:23;;;;;;;;;;;9.00;99.90;;;;;;4949403;28;19940;-68
2023/12/21 00:57:49;;;;;;;;;;;9.00;99.90;;;;;;4938562;28;20148;-70
2023/12/21 01:00:15;;;;;;;;;;;9.00;99.90;;;;;;4956453;28;19930;-69
2023/12/21 01:02:41;;;;;;;;;;;9.00;99.90;;;;;;4943516;28;20518;-71
2023/12/21 01:05:07;;;;;;;;;;;9.00;99.90;;;;;;4950002;28;20380;-70
2023/12/21 01:07:33;;;;;;;;;;;9.00;99.90;;;;;;4934607;28;19925;-69
2023/12/21 01:09:59;;;;;;;;;;;9.10;99.90;;;;;;4957498;28;19926;-69
2023/12/21 01:12:25;;;;;;;;;;;9.00;99.90;;;;;;4932412;28;19925;-70
2023/12/21 01:14:50;;;;;;;;;;;9.10;99.90;;;;;;4946718;28;19926;-70
2023/12/21 01:17:17;;;;;;;;;;;9.10;99.90;;;;;;4932681;28;19940;-70
2023/12/21 01:19:42;;;;;;;;;;;9.00;99.90;;;;;;4968502;28;19960;-69
2023/12/21 01:22:08;;;;;;;;;;;9.10;99.90;;;;;;4948887;28;20312;-68
2023/12/21 01:24:34;;;;;;;;;;;9.10;99.90;;;;;;4962823;28;19929;-69
2023/12/21 01:27:00;;;;;;;;;;;9.10;99.90;;;;;;4943615;28;19925;-69
2023/12/21 01:29:26;;;;;;;;;;;9.00;99.90;;;;;;4941441;28;19929;-69
2023/12/21 01:31:52;;;;;;;;;;;9.10;99.90;;;;;;4960284;28;19929;-71
2023/12/21 01:34:18;;;;;;;;;;;9.10;99.90;;;;;;4963918;28;20443;-70
2023/12/21 01:36:44;;;;;;;;;;;9.00;99.90;;;;;;4963233;28;19926;-71
2023/12/21 01:39:10;;;;;;;;;;;9.10;99.90;;;;;;4920879;28;20456;-70
2023/12/21 01:41:36;;;;;;;;;;;9.00;99.90;;;;;;4960003;28;19930;-70
2023/12/21 01:44:02;;;;;;;;;;;9.10;99.90;;;;;;4926784;28;20591;-71
2023/12/21 01:46:29;;;;;;;;;;;9.10;99.90;;;;;;4960365;28;19929;-71
2023/12/21 01:48:55;;;;;;;;;;;9.10;99.90;;;;;;4938600;28;20312;-71
2023/12/21 01:51:21;;;;;;;;;;;9.10;99.90;;;;;;4978553;28;20972;-71
2023/12/21 01:53:47;;;;;;;;;;;9.10;99.90;;;;;;4921678;28;19925;-71
2023/12/21 01:56:13;;;;;;;;;;;9.00;99.90;;;;;;4961059;28;19932;-71
2023/12/21 01:58:39;;;;;;;;;;;9.10;99.90;;;;;;4928666;28;19926;-71
2023/12/21 02:01:06;;;;;;;;;;;9.10;99.90;;;;;;4957742;28;19961;-70
2023/12/21 02:03:32;;;;;;;;;;;9.10;99.90;;;;;;4923000;28;19933;-70
2023/12/21 02:05:59;;;;;;;;;;;9.10;99.90;;;;;;4954544;28;19926;-70
2023/12/21 02:08:25;;;;;;;;;;;9.10;99.90;;;;;;4947994;28;20635;-71
2023/12/21 02:10:56;;;;;;;;;;;9.10;99.90;;;;;;4963018;28;19926;-71
2023/12/21 02:13:22;;;;;;;;;;;9.10;99.90;;;;;;4929553;28;19932;-70
2023/12/21 02:15:48;;;;;;;;;;;9.10;99.90;;;;;;4952073;28;19980;-69
2023/12/21 02:18:15;;;;;;;;;;;9.10;99.90;;;;;;4934133;28;20402;-71
2023/12/21 02:20:43;;;;;;;;;;;9.10;99.90;;;;;;4966181;28;20297;-70
2023/12/21 02:23:10;;;;;;;;;;;9.20;99.90;;;;;;4932780;28;19928;-70
2023/12/21 02:25:36;;;;;;;;;;;9.10;99.90;;;;;;4954837;28;21000;-70
2023/12/21 02:28:02;;;;;;;;;;;9.10;99.90;;;;;;4928867;28;19932;-70
2023/12/21 02:30:28;;;;;;;;;;;9.10;99.90;;;;;;4957324;28;20726;-69
2023/12/21 02:32:54;;;;;;;;;;;9.10;99.90;;;;;;4943945;28;19935;-69
2023/12/21 02:35:20;;;;;;;;;;;9.10;99.90;;;;;;4978785;28;19936;-69
2023/12/21 02:37:46;;;;;;;;;;;9.10;99.90;;;;;;4944032;28;20869;-69
2023/12/21 02:40:12;;;;;;;;;;;9.20;99.90;;;;;;4958840;28;19926;-71
2023/12/21 02:42:37;;;;;;;;;;;9.10;99.90;;;;;;4958595;28;19936;-71
2023/12/21 02:45:03;;;;;;;;;;;9.10;99.90;;;;;;4951820;28;19929;-70
2023/12/21 02:47:29;;;;;;;;;;;9.20;99.90;;;;;;4926399;28;20262;-71
2023/12/21 02:49:55;;;;;;;;;;;9.20;99.90;;;;;;4940866;28;20777;-70
2023/12/21 02:52:21;;;;;;;;;;;9.10;99.90;;;;;;4931792;28;19947;-70
2023/12/21 02:54:47;;;;;;;;;;;9.20;99.90;;;;;;4934426;28;19972;-70
2023/12/21 02:57:13;;;;;;;;;;;9.10;99.90;;;;;;4928349;28;19929;-69
2023/12/21 02:59:42;;;;;;;;;;;9.20;99.90;;;;;;4966293;28;19932;-70
2023/12/21 03:02:08;;;;;;;;;;;9.20;99.90;;;;;;4962086;28;20434;-69
2023/12/21 03:04:35;;;;;;;;;;;9.20;99.90;;;;;;4905927;28;20883;-72
2023/12/21 03:07:01;;;;;;;;;;;9.20;99.90;;;;;;4991507;28;19936;-70
2023/12/21 03:09:27;;;;;;;;;;;9.20;99.90;;;;;;4925960;28;19929;-70
2023/12/21 03:11:53;;;;;;;;;;;9.20;99.90;;;;;;4956437;28;19925;-71
2023/12/21 03:14:22;;;;;;;;;;;9.20;99.90;;;;;;4937105;28;19929;-70
2023/12/21 03:16:48;;;;;;;;;;;9.20;99.90;;;;;;4959399;28;19932;-70
2023/12/21 03:19:14;;;;;;;;;;;9.20;99.90;;;;;;4916787;28;19926;-70
2023/12/21 03:21:40;;;;;;;;;;;9.20;99.90;;;;;;4963757;28;19932;-70
2023/12/21 03:24:06;;;;;;;;;;;9.20;99.90;;;;;;4915783;28;19936;-70
2023/12/21 03:26:32;;;;;;;;;;;9.10;99.90;;;;;;4955337;28;20119;-70
2023/12/21 03:28:58;;;;;;;;;;;9.20;99.90;;;;;;4953149;28;21081;-70
2023/12/21 03:31:24;;;;;;;;;;;9.20;99.90;;;;;;4959170;28;19929;-71
2023/12/21 03:33:49;;;;;;;;;;;9.20;99.90;;;;;;4928754;28;19968;-71
2023/12/21 03:36:17;;;;;;;;;;;9.20;99.90;;;;;;4953011;28;19925;-70
2023/12/21 03:38:43;;;;;;;;;;;9.20;99.90;;;;;;4937452;28;20048;-71
2023/12/21 03:41:09;;;;;;;;;;;9.10;99.90;;;;;;4958861;28;19934;-71
2023/12/21 03:43:35;;;;;;;;;;;9.10;99.90;;;;;;4943044;28;20537;-72
2023/12/21 03:46:01;;;;;;;;;;;9.20;99.90;;;;;;4954215;28;19976;-70
2023/12/21 03:48:27;;;;;;;;;;;9.20;99.90;;;;;;4920156;28;20402;-71
2023/12/21 03:50:52;;;;;;;;;;;9.20;99.90;;;;;;4956685;28;19933;-71
2023/12/21 03:53:18;;;;;;;;;;;9.20;99.90;;;;;;4942512;28;19929;-70
2023/12/21 03:55:44;;;;;;;;;;;9.20;99.90;;;;;;4962940;28;19925;-70
2023/12/21 03:58:10;;;;;;;;;;;9.20;99.90;;;;;;4944600;28;19925;-71
2023/12/21 04:00:36;;;;;;;;;;;9.10;99.90;;;;;;4950783;28;20535;-70
2023/12/21 04:03:02;;;;;;;;;;;9.20;99.90;;;;;;4934047;28;19955;-71
2023/12/21 04:05:28;;;;;;;;;;;9.10;99.90;;;;;;4961950;28;20926;-72
2023/12/21 04:07:54;;;;;;;;;;;9.10;99.90;;;;;;4933723;28;20011;-72
2023/12/21 04:10:20;;;;;;;;;;;9.10;99.90;;;;;;4964113;28;21059;-71
2023/12/21 04:12:46;;;;;;;;;;;9.10;99.90;;;;;;4929156;28;19933;-72
2023/12/21 04:15:11;;;;;;;;;;;9.10;99.90;;;;;;4949087;28;20553;-73
2023/12/21 04:17:37;;;;;;;;;;;9.00;99.90;;;;;;4934936;28;19937;-72
2023/12/21 04:20:04;;;;;;;;;;;9.00;99.90;;;;;;4950232;28;19933;-73
2023/12/21 04:22:30;;;;;;;;;;;9.00;99.90;;;;;;4934318;28;21027;-70
2023/12/21 04:24:56;;;;;;;;;;;9.00;99.90;;;;;;4943168;28;19930;-72
2023/12/21 04:27:23;;;;;;;;;;;9.10;99.90;;;;;;4948612;28;19933;-71
2023/12/21 04:29:49;;;;;;;;;;;9.00;99.90;;;;;;4935692;28;19925;-73
2023/12/21 04:32:15;;;;;;;;;;;9.00;99.90;;;;;;4933142;28;20902;-71
2023/12/21 04:34:41;;;;;;;;;;;9.00;99.90;;;;;;4938332;28;19931;-71
2023/12/21 04:37:07;;;;;;;;;;;9.00;99.90;;;;;;4956238;28;20477;-70
2023/12/21 04:39:33;;;;;;;;;;;9.00;99.90;;;;;;4966565;28;19926;-69
2023/12/21 04:41:59;;;;;;;;;;;9.00;99.90;;;;;;4978120;28;20333;-70
2023/12/21 04:44:24;;;;;;;;;;;9.00;99.90;;;;;;4943658;28;19941;-72
2023/12/21 04:46:50;;;;;;;;;;;9.00;99.90;;;;;;4979106;28;19925;-70
2023/12/21 04:49:19;;;;;;;;;;;9.10;99.90;;;;;;4933247;28;19925;-71
2023/12/21 04:51:46;;;;;;;;;;;9.00;99.90;;;;;;4978824;28;19925;-70
2023/12/21 04:54:11;;;;;;;;;;;9.00;99.90;;;;;;4938840;28;19926;-70
2023/12/21 04:56:41;;;;;;;;;;;9.00;99.90;;;;;;4962882;28;19945;-72
2023/12/21 04:59:07;;;;;;;;;;;9.00;99.90;;;;;;4941837;28;19926;-70
2023/12/21 05:01:33;;;;;;;;;;;9.00;99.90;;;;;;4993656;28;19925;-71
2023/12/21 05:03:59;;;;;;;;;;;9.00;99.90;;;;;;4940248;28;19996;-72
2023/12/21 05:06:25;;;;;;;;;;;9.10;99.90;;;;;;4967772;28;20344;-71
2023/12/21 05:08:51;;;;;;;;;;;9.10;99.90;;;;;;4937040;28;19932;-72
2023/12/21 05:11:17;;;;;;;;;;;9.10;99.90;;;;;;4964218;28;19972;-70
2023/12/21 05:13:43;;;;;;;;;;;9.10;99.90;;;;;;4958580;28;20905;-72
2023/12/21 05:16:09;;;;;;;;;;;9.10;99.90;;;;;;4942767;28;19925;-69
2023/12/21 05:18:36;;;;;;;;;;;9.10;99.90;;;;;;4930449;28;20882;-70
2023/12/21 05:21:02;;;;;;;;;;;9.00;99.90;;;;;;4956084;28;20402;-71
2023/12/21 05:23:28;;;;;;;;;;;9.10;99.90;;;;;;4928258;28;20756;-71
2023/12/21 05:25:54;;;;;;;;;;;9.10;99.90;;;;;;4952986;28;19933;-73
2023/12/21 05:28:19;;;;;;;;;;;9.00;99.90;;;;;;4953995;28;19935;-70
2023/12/21 05:30:46;;;;;;;;;;;9.10;99.90;;;;;;4973443;28;19945;-71
2023/12/21 05:33:11;;;;;;;;;;;9.10;99.90;;;;;;4938948;28;20494;-71
2023/12/21 05:35:37;;;;;;;;;;;9.10;99.90;;;;;;4964536;28;20320;-70
2023/12/21 05:38:03;;;;;;;;;;;9.10;99.90;;;;;;4930280;28;19926;-71
2023/12/21 05:40:29;;;;;;;;;;;9.10;99.90;;;;;;4959081;28;20483;-72
2023/12/21 05:42:55;;;;;;;;;;;9.10;99.90;;;;;;4932583;28;19939;-73
2023/12/21 05:45:21;;;;;;;;;;;9.10;99.90;;;;;;4948393;28;19933;-72
2023/12/21 05:47:47;;;;;;;;;;;9.20;99.90;;;;;;4937733;28;20046;-72
2023/12/21 05:50:13;;;;;;;;;;;9.20;99.90;;;;;;4964181;28;19936;-72
2023/12/21 05:52:39;;;;;;;;;;;9.20;99.90;;;;;;4933919;28;19925;-72
2023/12/21 05:55:05;;;;;;;;;;;9.20;99.90;;;;;;4954282;28;19968;-71
2023/12/21 05:57:31;;;;;;;;;;;9.20;99.90;;;;;;4934742;28;19938;-72
2023/12/21 05:59:57;;;;;;;;;;;9.20;99.90;;;;;;4966126;28;20988;-70
2023/12/21 06:02:23;;;;;;;;;;;9.20;99.90;;;;;;4929780;28;19929;-70
2023/12/21 06:04:50;;;;;;;;;;;9.20;99.90;;;;;;4958573;28;19940;-72
2023/12/21 06:07:16;;;;;;;;;;;9.20;99.90;;;;;;4933235;28;19936;-69
2023/12/21 06:09:42;;;;;;;;;;;9.30;99.90;;;;;;4982543;28;19925;-70
2023/12/21 06:12:09;;;;;;;;;;;9.30;99.90;;;;;;4953879;28;19936;-72
2023/12/21 06:14:34;;;;;;;;;;;9.20;99.90;;;;;;4928492;28;19962;-71
2023/12/21 06:17:00;;;;;;;;;;;9.20;99.90;;;;;;4959481;28;19976;-70
2023/12/21 06:19:26;;;;;;;;;;;9.30;99.90;;;;;;4912229;28;19925;-71
2023/12/21 06:21:55;;;;;;;;;;;9.30;99.90;;;;;;4959017;28;19930;-71
2023/12/21 06:24:21;;;;;;;;;;;9.20;99.90;;;;;;4925360;28;19936;-71
2023/12/21 06:26:47;;;;;;;;;;;9.30;99.90;;;;;;4991859;28;20023;-71
2023/12/21 06:29:13;;;;;;;;;;;9.30;99.90;;;;;;4939648;28;19994;-71
2023/12/21 06:31:39;;;;;;;;;;;9.30;99.90;;;;;;4962205;28;19926;-71
2023/12/21 06:34:04;;;;;;;;;;;9.30;99.90;;;;;;4913096;28;19925;-70
2023/12/21 06:36:31;;;;;;;;;;;9.30;99.90;;;;;;4959828;28;19933;-70
2023/12/21 06:38:57;;;;;;;;;;;9.30;99.90;;;;;;4925765;28;20183;-70
2023/12/21 06:41:23;;;;;;;;;;;9.30;99.90;;;;;;4958605;28;19952;-71
2023/12/21 06:43:49;;;;;;;;;;;9.40;99.90;;;;;;4932458;28;19925;-72
2023/12/21 06:46:15;;;;;;;;;;;9.40;99.90;;;;;;4984381;28;20024;-71
2023/12/21 06:48:44;;;;;;;;;;;9.40;99.90;;;;;;4937839;28;19929;-70
2023/12/21 06:51:11;;;;;;;;;;;9.30;99.90;;;;;;4959829;28;19940;-71
2023/12/21 06:53:37;;;;;;;;;;;9.40;99.90;;;;;;4934201;28;19936;-70
2023/12/21 06:56:03;;;;;;;;;;;9.30;99.90;;;;;;4961022;28;19933;-73
2023/12/21 06:58:29;;;;;;;;;;;9.40;99.90;;;;;;4935197;28;19925;-72
2023/12/21 07:00:55;;;;;;;;;;;9.30;99.90;;;;;;4964300;28;19932;-71
2023/12/21 07:03:24;;;;;;;;;;;9.30;99.90;;;;;;4926848;28;20459;-72
2023/12/21 07:05:50;;;;;;;;;;;9.30;99.90;;;;;;4958590;28;19934;-73
2023/12/21 07:08:17;;;;;;;;;;;9.30;99.90;;;;;;4937982;28;20031;-72
2023/12/21 07:10:43;;;;;;;;;;;9.20;99.90;;;;;;4961652;28;20196;-76
2023/12/21 07:13:10;;;;;;;;;;;9.20;99.90;;;;;;4929560;28;19936;-76
2023/12/21 07:15:35;;;;;;;;;;;9.20;99.90;;;;;;4953458;28;20213;-74
2023/12/21 07:18:01;;;;;;;;;;;9.20;99.90;;;;;;4934626;28;20452;-76
2023/12/21 07:20:30;;;;;;;;;;;9.10;99.90;;;;;;4943957;28;20039;-77
2023/12/21 07:22:56;;;;;;;;;;;9.20;99.90;;;;;;4946264;28;19952;-74
2023/12/21 07:25:22;;;;;;;;;;;9.10;99.90;;;;;;4951251;28;19941;-76
2023/12/21 07:27:48;;;;;;;;;;;9.10;99.90;;;;;;4939534;28;20007;-78
2023/12/21 07:30:15;;;;;;;;;;;9.10;99.90;;;;;;4967701;28;19937;-77
2023/12/21 07:32:41;;;;;;;;;;;9.20;99.90;;;;;;4936936;28;19985;-77
2023/12/21 07:35:07;;;;;;;;;;;9.20;99.90;;;;;;4954819;28;19932;-77
2023/12/21 07:37:33;;;;;;;;;;;9.10;99.90;;;;;;4930149;28;20514;-76
2023/12/21 07:40:00;;;;;;;;;;;9.10;99.90;;;;;;4949505;28;19932;-77
2023/12/21 07:42:27;;;;;;;;;;;9.10;99.90;;;;;;4930400;28;20324;-77
2023/12/21 07:44:53;;;;;;;;;;;9.10;99.90;;;;;;4955522;28;20392;-76
2023/12/21 07:47:19;;;;;;;;;;;9.20;99.90;;;;;;4919390;28;19936;-75
2023/12/21 07:49:45;;;;;;;;;;;9.20;99.90;;;;;;4960421;28;19948;-76
2023/12/21 07:52:11;;;;;;;;;;;9.20;99.90;;;;;;4968329;28;19932;-76
2023/12/21 07:54:37;;;;;;;;;;;9.20;99.90;;;;;;4957295;28;20576;-75
2023/12/21 07:57:03;;;;;;;;;;;9.20;99.90;;;;;;4959335;28;19926;-75
2023/12/21 07:59:29;;;;;;;;;;;9.20;99.90;;;;;;4931394;28;20454;-77
2023/12/21 08:01:55;;;;;;;;;;;9.10;99.90;;;;;;4958725;28;19935;-77
2023/12/21 08:04:21;;;;;;;;;;;9.20;99.90;;;;;;4942240;28;19925;-78
2023/12/21 08:06:47;;;;;;;;;;;9.10;99.90;;;;;;4981164;28;19936;-77
2023/12/21 08:09:13;;;;;;;;;;;9.20;99.90;;;;;;4938412;28;19933;-76
2023/12/21 08:11:39;;;;;;;;;;;9.20;99.90;;;;;;4981968;28;19925;-78
2023/12/21 08:14:05;;;;;;;;;;;9.20;99.90;;;;;;4915448;28;20111;-76
2023/12/21 08:16:31;;;;;;;;;;;9.20;99.90;;;;;;4962592;28;19929;-76
2023/12/21 08:18:57;;;;;;;;;;;9.20;99.90;;;;;;4952509;28;19925;-76
2023/12/21 08:21:23;;;;;;;;;;;9.20;99.90;;;;;;4960781;28;19987;-77
2023/12/21 08:23:50;;;;;;;;;;;9.20;99.90;;;;;;4942354;28;20028;-77
2023/12/21 08:26:16;;;;;;;;;;;9.20;99.90;;;;;;4957712;28;20415;-77
2023/12/21 08:28:42;;;;;;;;;;;9.20;99.90;;;;;;4952889;28;19937;-77
2023/12/21 08:31:08;;;;;;;;;;;9.30;99.90;;;;;;4957441;28;19937;-77
2023/12/21 08:33:35;;;;;;;;;;;9.30;99.90;;;;;;4937794;28;19929;-76
2023/12/21 08:36:01;;;;;;;;;;;9.30;99.90;;;;;;4964285;28;19925;-77
2023/12/21 08:38:27;;;;;;;;;;;9.30;99.90;;;;;;4925234;28;19929;-77
2023/12/21 08:40:53;;;;;;;;;;;9.40;99.90;;;;;;4954603;28;20036;-78
2023/12/21 08:43:18;;;;;;;;;;;9.40;99.90;;;;;;4930780;28;19930;-81
2023/12/21 08:45:44;;;;;;;;;;;9.40;99.90;;;;;;4961290;28;19936;-80
2023/12/21 08:48:10;;;;;;;;;;;9.50;99.90;;;;;;4938538;28;19932;-81
2023/12/21 08:50:36;;;;;;;;;;;9.50;99.90;;;;;;4969484;28;20110;-79
2023/12/21 08:53:02;;;;;;;;;;;9.50;99.90;;;;;;4933685;28;19925;-71
2023/12/21 08:55:29;;;;;;;;;;;9.60;99.90;;;;;;4949801;28;19936;-75
2023/12/21 08:57:55;;;;;;;;;;;9.50;99.90;;;;;;4938836;28;20329;-76
2023/12/21 09:00:21;;;;;;;;;;;9.50;99.90;;;;;;4963059;28;20624;-76
2023/12/21 09:02:47;;;;;;;;;;;9.50;99.90;;;;;;4948397;28;19929;-76
2023/12/21 09:05:13;;;;;;;;;;;9.60;99.90;;;;;;4971994;28;19933;-76
2023/12/21 09:07:39;;;;;;;;;;;9.60;99.90;;;;;;4942750;28;19933;-75
2023/12/21 09:10:06;;;;;;;;;;;9.60;99.90;;;;;;4949624;28;19925;-77
2023/12/21 09:12:32;;;;;;;;;;;9.60;99.90;;;;;;4956564;28;19935;-76
2023/12/21 09:14:58;;;;;;;;;;;9.60;99.90;;;;;;4951657;28;21359;-77
2023/12/21 09:17:24;;;;;;;;;;;9.60;99.90;;;;;;4941927;28;20909;-77
2023/12/21 09:19:50;;;;;;;;;;;9.60;99.90;;;;;;4980952;28;19926;-75
2023/12/21 09:22:16;;;;;;;;;;;9.60;99.90;;;;;;4936451;28;19932;-79
2023/12/21 09:24:42;;;;;;;;;;;9.70;99.90;;;;;;4947485;28;19941;-77
2023/12/21 09:27:08;;;;;;;;;;;9.70;99.90;;;;;;4968175;28;20012;-75
2023/12/21 09:29:34;;;;;;;;;;;9.70;99.90;;;;;;4909822;28;19929;-77
2023/12/21 09:31:59;;;;;;;;;;;9.80;99.90;;;;;;4946928;28;20351;-76
2023/12/21 09:34:25;;;;;;;;;;;9.80;99.90;;;;;;4941976;28;20004;-76
2023/12/21 09:36:53;;;;;;;;;;;9.80;99.90;;;;;;4964678;28;20422;-75
2023/12/21 09:39:19;;;;;;;;;;;9.80;99.90;;;;;;4943346;28;19965;-76
2023/12/21 09:41:45;;;;;;;;;;;9.90;99.90;;;;;;4972693;28;19932;-74
2023/12/21 09:44:16;;;;;;;;;;;9.90;99.90;;;;;;4939957;28;19932;-74
2023/12/21 09:46:45;;;;;;;;;;;9.90;99.90;;;;;;4965815;28;19930;-75
2023/12/21 09:49:12;;;;;;;;;;;9.90;99.90;;;;;;4943460;28;19925;-73
2023/12/21 09:51:39;;;;;;;;;;;9.90;99.90;;;;;;4981079;28;19956;-78
2023/12/21 09:54:05;;;;;;;;;;;9.90;99.90;;;;;;4919570;28;19926;-73
2023/12/21 09:56:32;;;;;;;;;;;9.90;99.90;;;;;;4963111;28;19932;-75
2023/12/21 09:58:58;;;;;;;;;;;9.90;99.90;;;;;;4942775;28;19925;-74
2023/12/21 10:01:25;;;;;;;;;;;10.00;99.90;;;;;;4964767;28;19926;-74
2023/12/21 10:03:50;;;;;;;;;;;10.00;99.90;;;;;;4934740;28;21527;-75
2023/12/21 10:06:16;;;;;;;;;;;10.00;99.90;;;;;;4964430;28;19987;-74
2023/12/21 10:08:42;;;;;;;;;;;10.00;99.90;;;;;;4935226;28;19925;-73
2023/12/21 10:11:08;;;;;;;;;;;10.00;99.90;;;;;;4958309;28;19944;-73
2023/12/21 10:13:35;;;;;;;;;;;10.00;99.90;;;;;;4947679;28;19925;-75
2023/12/21 10:16:03;;;;;;;;;;;10.00;99.90;;;;;;4962183;28;19926;-73
2023/12/21 10:18:29;;;;;;;;;;;10.00;99.90;;;;;;4943898;28;19936;-76
2023/12/21 10:20:56;;;;;;;;;;;10.00;99.90;;;;;;4962119;28;19926;-75
2023/12/21 10:23:22;;;;;;;;;;;10.00;99.90;;;;;;4953363;28;20514;-77
2023/12/21 10:25:48;;;;;;;;;;;10.00;99.90;;;;;;4954811;28;19934;-73
2023/12/21 10:28:14;;;;;;;;;;;10.00;99.90;;;;;;4935879;28;20907;-75
2023/12/21 10:30:40;;;;;;;;;;;10.10;99.90;;;;;;4962760;28;19917;-76
2023/12/21 10:33:09;;;;;;;;;;;10.00;99.90;;;;;;4982657;28;19922;-73
2023/12/21 10:35:37;;;;;;;;;;;10.00;99.90;;;;;;4986742;28;19929;-75
2023/12/21 10:38:03;;;;;;;;;;;10.00;99.90;;;;;;4981745;28;20469;-72
2023/12/21 10:40:30;;;;;;;;;;;10.10;99.90;;;;;;4984143;28;20518;-73
2023/12/21 10:42:56;;;;;;;;;;;10.10;99.90;;;;;;4957763;28;19925;-72
2023/12/21 10:45:22;;;;;;;;;;;10.10;99.90;;;;;;4972057;28;19936;-73
2023/12/21 10:48:00;;;;;;;;;;;10.20;99.90;;;;;;4932902;28;19929;-76
2023/12/21 10:50:28;;;;;;;;;;;10.30;99.90;;;;;;4964816;28;19925;-72
2023/12/21 10:52:54;;;;;;;;;;;10.20;99.90;;;;;;4932395;28;19932;-76
2023/12/21 10:55:21;;;;;;;;;;;10.20;99.90;;;;;;4960766;28;20431;-73
2023/12/21 10:57:48;;;;;;;;;;;10.30;99.90;;;;;;4951550;28;19924;-71
2023/12/21 11:00:17;;;;;;;;;;;10.30;99.90;;;;;;4962213;28;19940;-75
2023/12/21 11:02:45;;;;;;;;;;;10.30;99.90;;;;;;4964131;28;19926;-75
2023/12/21 11:05:11;;;;;;;;;;;10.20;99.90;;;;;;4942735;28;19937;-73
2023/12/21 11:07:39;;;;;;;;;;;10.20;99.90;;;;;;4959937;28;20491;-72
2023/12/21 11:10:06;;;;;;;;;;;10.20;99.90;;;;;;4952233;28;19952;-79
2023/12/21 11:12:31;;;;;;;;;;;10.30;99.90;;;;;;4939008;28;19937;-77
2023/12/21 11:15:00;;;;;;;;;;;10.30;99.90;;;;;;4962463;28;19925;-76
2023/12/21 11:17:26;;;;;;;;;;;10.30;99.90;;;;;;4937105;28;19937;-73
2023/12/21 11:19:52;;;;;;;;;;;10.30;99.90;;;;;;4957537;28;19921;-73
2023/12/21 11:22:18;;;;;;;;;;;10.30;99.90;;;;;;4937520;28;19926;-75
2023/12/21 11:24:44;;;;;;;;;;;10.40;99.90;;;;;;4957694;28;20033;-72
2023/12/21 11:27:11;;;;;;;;;;;10.40;99.90;;;;;;4944272;28;19937;-71
2023/12/21 11:29:37;;;;;;;;;;;10.40;99.90;;;;;;4967674;28;19932;-72
2023/12/21 11:32:06;;;;;;;;;;;10.40;99.90;;;;;;4960873;28;19925;-70
2023/12/21 11:34:35;;;;;;;;;;;10.50;99.90;;;;;;4940546;28;19925;-71
2023/12/21 11:37:17;;;;;;;;;;;10.50;99.90;;;;;;4991292;28;19926;-70
2023/12/21 11:39:43;;;;;;;;;;;10.50;99.90;;;;;;4949365;28;19926;-70
2023/12/21 11:42:09;;;;;;;;;;;10.40;99.90;;;;;;4935889;28;20040;-73
2023/12/21 11:44:38;;;;;;;;;;;10.50;99.90;;;;;;4956619;28;19948;-70
2023/12/21 11:47:07;;;;;;;;;;;10.50;99.90;;;;;;4983670;28;19960;-69
2023/12/21 11:49:33;;;;;;;;;;;10.50;99.90;;;;;;4920378;28;19932;-70
2023/12/21 11:51:59;;;;;;;;;;;10.60;99.90;;;;;;4985303;28;19957;-70
2023/12/21 11:54:26;;;;;;;;;;;10.70;99.90;;;;;;4937466;28;20530;-69
2023/12/21 11:56:52;;;;;;;;;;;10.60;99.90;;;;;;4983837;28;19925;-69
2023/12/21 11:59:27;;;;;;;;;;;10.60;99.90;;;;;;4936261;28;19932;-69
2023/12/21 12:01:53;;;;;;;;;;;10.60;99.90;;;;;;4984162;28;19936;-69
2023/12/21 12:04:20;;;;;;;;;;;10.70;99.90;;;;;;4937448;28;19928;-69
2023/12/21 12:06:46;;;;;;;;;;;10.70;99.90;;;;;;4985954;28;19936;-69
2023/12/21 12:09:12;;;;;;;;;;;10.70;99.90;;;;;;4936020;28;19933;-68
2023/12/21 12:11:38;;;;;;;;;;;10.80;99.90;;;;;;4965481;28;21118;-69
2023/12/21 12:14:04;;;;;;;;;;;10.90;99.90;;;;;;4923228;28;20400;-69
2023/12/21 12:16:34;;;;;;;;;;;10.90;99.90;;;;;;4983920;28;19929;-68
2023/12/21 12:19:00;;;;;;;;;;;10.90;99.90;;;;;;4926126;28;19930;-68
2023/12/21 12:21:26;;;;;;;;;;;10.90;99.90;;;;;;4982439;28;20241;-68
2023/12/21 12:23:53;;;;;;;;;;;10.90;99.90;;;;;;4941181;28;20888;-68
2023/12/21 12:26:19;;;;;;;;;;;11.00;99.90;;;;;;4982987;28;20363;-68
2023/12/21 12:28:47;;;;;;;;;;;11.00;99.90;;;;;;4964026;28;21120;-69
2023/12/21 12:31:13;;;;;;;;;;;11.10;99.90;;;;;;4966262;28;19925;-69
2023/12/21 12:33:39;;;;;;;;;;;11.10;99.90;;;;;;4929307;28;20018;-68
2023/12/21 12:36:05;;;;;;;;;;;11.10;99.90;;;;;;4981992;28;19925;-69
2023/12/21 12:38:31;;;;;;;;;;;11.20;99.90;;;;;;4940923;28;19930;-68
2023/12/21 12:40:58;;;;;;;;;;;11.10;99.90;;;;;;4978550;28;19932;-68
2023/12/21 12:43:25;;;;;;;;;;;11.10;99.90;;;;;;4942749;28;19930;-69
2023/12/21 12:45:52;;;;;;;;;;;11.10;99.90;;;;;;4975223;28;20826;-69
2023/12/21 12:48:19;;;;;;;;;;;11.00;99.90;;;;;;4941743;28;20911;-68
2023/12/21 12:50:48;;;;;;;;;;;11.10;99.90;;;;;;4942347;28;21069;-69
2023/12/21 12:53:17;;;;;;;;;;;11.10;99.90;;;;;;4953729;28;20819;-68
2023/12/21 12:55:49;;;;;;;;;;;11.00;99.90;;;;;;4958368;28;20680;-68
2023/12/21 12:58:15;;;;;;;;;;;11.10;99.90;;;;;;4925390;28;19926;-68
2023/12/21 13:00:41;;;;;;;;;;;11.00;99.90;;;;;;4974363;28;19932;-67
2023/12/21 13:03:08;;;;;;;;;;;11.10;99.90;;;;;;4949170;28;19926;-68
2023/12/21 13:05:33;;;;;;;;;;;11.10;99.90;;;;;;4964329;28;21003;-70
2023/12/21 13:07:59;;;;;;;;;;;11.10;99.90;;;;;;4946752;28;19936;-68
2023/12/21 13:10:26;;;;;;;;;;;11.00;99.90;;;;;;4971634;28;19925;-68
2023/12/21 13:12:52;;;;;;;;;;;11.10;99.90;;;;;;4940426;28;20267;-68
2023/12/21 13:15:18;;;;;;;;;;;11.10;99.90;;;;;;4988676;28;19932;-68
2023/12/21 13:17:44;;;;;;;;;;;11.00;99.90;;;;;;4950316;28;19929;-68
2023/12/21 13:20:11;;;;;;;;;;;11.00;99.90;;;;;;4961740;28;19928;-67
2023/12/21 13:22:37;;;;;;;;;;;11.00;99.90;;;;;;4946419;28;19997;-68
2023/12/21 13:25:03;;;;;;;;;;;11.10;99.90;;;;;;4962447;28;20009;-68
2023/12/21 13:27:29;;;;;;;;;;;11.00;99.90;;;;;;4945303;28;21099;-67
2023/12/21 13:29:55;;;;;;;;;;;11.10;99.90;;;;;;4966723;28;19929;-68
2023/12/21 13:32:21;;;;;;;;;;;11.00;99.90;;;;;;4944945;28;19929;-68
2023/12/21 13:34:47;;;;;;;;;;;11.00;99.90;;;;;;4955769;28;19925;-67
2023/12/21 13:37:13;;;;;;;;;;;10.90;99.90;;;;;;4952088;28;20224;-68
2023/12/21 13:39:39;;;;;;;;;;;10.90;99.90;;;;;;4966473;28;20034;-67
2023/12/21 13:42:06;;;;;;;;;;;11.00;99.90;;;;;;4960215;28;20509;-67
2023/12/21 13:44:32;;;;;;;;;;;10.90;99.90;;;;;;4955177;28;19929;-67
2023/12/21 13:46:58;;;;;;;;;;;10.90;99.90;;;;;;4980316;28;19975;-67
2023/12/21 13:49:24;;;;;;;;;;;10.90;99.90;;;;;;4925892;28;19929;-68
2023/12/21 13:51:50;;;;;;;;;;;10.90;99.90;;;;;;4981364;28;19925;-68
2023/12/21 13:54:21;;;;;;;;;;;10.90;99.90;;;;;;4963652;28;19929;-68
2023/12/21 13:56:47;;;;;;;;;;;11.00;99.90;;;;;;4952412;28;19925;-68
2023/12/21 13:59:13;;;;;;;;;;;11.00;99.90;;;;;;4923956;28;19933;-67
2023/12/21 14:01:39;;;;;;;;;;;11.00;99.90;;;;;;4980886;28;19925;-68
2023/12/21 14:04:05;;;;;;;;;;;11.00;99.90;;;;;;4922583;28;19933;-68
2023/12/21 14:06:31;;;;;;;;;;;11.00;99.90;;;;;;4943341;28;19928;-67
2023/12/21 14:08:57;;;;;;;;;;;10.90;99.90;;;;;;4963838;28;19928;-67
2023/12/21 14:11:23;;;;;;;;;;;10.90;99.90;;;;;;4977520;28;21057;-68
2023/12/21 14:13:49;;;;;;;;;;;11.00;99.90;;;;;;4924439;28;19932;-71
2023/12/21 14:16:15;;;;;;;;;;;10.90;99.90;;;;;;4955232;28;19931;-75
2023/12/21 14:18:42;;;;;;;;;;;8.60;99.90;;;;;;4938891;28;19925;-75
2023/12/21 14:21:08;;;;;;;;;;;7.00;99.90;;;;;;4964143;28;20001;-74